sensor_id;sensor_type;location;lat;lon;timestamp;P1;durP1;ratioP1;P2;durP2;ratioP2
63782;SDS011;49925;52.522;5.732;2023-03-12T10:26:58;36.03;;;14.57;;
63782;SDS011;49925;52.522;5.732;2023-03-12T10:29:36;35.25;;;15.25;;
63782;SDS011;49925;52.522;5.732;2023-03-12T10:34:54;31.75;;;15.40;;
63782;SDS011;49925;52.522;5.732;2023-03-12T10:37:25;36.53;;;15.70;;
63782;SDS011;49925;52.522;5.732;2023-03-12T10:39:57;35.20;;;16.45;;
63782;SDS011;49925;52.522;5.732;2023-03-12T10:42:28;37.97;;;16.52;;
63782;SDS011;49925;52.522;5.732;2023-03-12T10:45:16;40.85;;;16.33;;
63782;SDS011;49925;52.522;5.732;2023-03-12T10:48:17;42.78;;;17.08;;
63782;SDS011;49925;52.522;5.732;2023-03-12T10:51:07;46.90;;;16.63;;
63782;SDS011;49925;52.522;5.732;2023-03-12T10:53:43;38.40;;;17.13;;
63782;SDS011;49925;52.522;5.732;2023-03-12T10:56:15;37.45;;;17.13;;
63782;SDS011;49925;52.522;5.732;2023-03-12T11:04:08;52.38;;;18.05;;
63782;SDS011;49925;52.522;5.732;2023-03-12T11:07:17;45.17;;;16.92;;
63782;SDS011;49925;52.522;5.732;2023-03-12T11:12:36;46.80;;;17.50;;
63782;SDS011;49925;52.522;5.732;2023-03-12T11:15:40;56.67;;;18.13;;
63782;SDS011;49925;52.522;5.732;2023-03-12T11:18:16;56.00;;;19.38;;
63782;SDS011;49925;52.522;5.732;2023-03-12T11:20:52;58.25;;;19.25;;
63782;SDS011;49925;52.522;5.732;2023-03-12T11:23:36;65.53;;;20.13;;
63782;SDS011;49925;52.522;5.732;2023-03-12T11:26:18;50.72;;;18.58;;
63782;SDS011;49925;52.522;5.732;2023-03-12T11:28:49;59.88;;;17.88;;
63782;SDS011;49925;52.522;5.732;2023-03-12T11:32:05;56.75;;;16.67;;
63782;SDS011;49925;52.522;5.732;2023-03-12T11:37:13;59.78;;;16.42;;
63782;SDS011;49925;52.522;5.732;2023-03-12T11:40:06;59.08;;;16.08;;
63782;SDS011;49925;52.522;5.732;2023-03-12T11:43:00;55.17;;;16.45;;
63782;SDS011;49925;52.522;5.732;2023-03-12T11:49:17;73.68;;;16.10;;
63782;SDS011;49925;52.522;5.732;2023-03-12T12:15:52;67.35;;;13.02;;
63782;SDS011;49925;52.522;5.732;2023-03-12T12:22:01;58.65;;;11.27;;
63782;SDS011;49925;52.522;5.732;2023-03-12T12:30:53;62.58;;;9.88;;
63782;SDS011;49925;52.522;5.732;2023-03-12T12:46:59;70.18;;;14.80;;
63782;SDS011;49925;52.522;5.732;2023-03-12T12:49:41;53.50;;;8.52;;
63782;SDS011;49925;52.522;5.732;2023-03-12T12:52:15;51.30;;;8.50;;
63782;SDS011;49925;52.522;5.732;2023-03-12T12:57:43;55.90;;;7.15;;
63782;SDS011;49925;52.522;5.732;2023-03-12T13:02:57;65.30;;;7.70;;
63782;SDS011;49925;52.522;5.732;2023-03-12T13:18:27;76.53;;;9.95;;
63782;SDS011;49925;52.522;5.732;2023-03-12T13:32:04;66.20;;;9.13;;
63782;SDS011;49925;52.522;5.732;2023-03-12T13:34:57;61.42;;;8.15;;
63782;SDS011;49925;52.522;5.732;2023-03-12T13:37:29;51.10;;;8.27;;
63782;SDS011;49925;52.522;5.732;2023-03-12T13:45:54;63.55;;;7.95;;
63782;SDS011;49925;52.522;5.732;2023-03-12T13:48:32;62.70;;;8.02;;
63782;SDS011;49925;52.522;5.732;2023-03-12T13:51:01;48.97;;;7.53;;
63782;SDS011;49925;52.522;5.732;2023-03-12T13:53:40;62.50;;;7.85;;
63782;SDS011;49925;52.522;5.732;2023-03-12T13:56:11;68.50;;;7.05;;
63782;SDS011;49925;52.522;5.732;2023-03-12T14:01:30;61.28;;;6.97;;
63782;SDS011;49925;52.522;5.732;2023-03-12T14:04:13;58.65;;;7.50;;
63782;SDS011;49925;52.522;5.732;2023-03-12T14:07:00;57.63;;;6.82;;
63782;SDS011;49925;52.522;5.732;2023-03-12T14:12:46;53.67;;;7.13;;
63782;SDS011;49925;52.522;5.732;2023-03-12T14:15:38;68.07;;;8.35;;
63782;SDS011;49925;52.522;5.732;2023-03-12T14:18:29;47.42;;;6.65;;
63782;SDS011;49925;52.522;5.732;2023-03-12T14:20:59;57.22;;;7.50;;
63782;SDS011;49925;52.522;5.732;2023-03-12T14:23:36;61.25;;;10.43;;
63782;SDS011;49925;52.522;5.732;2023-03-12T14:26:22;54.58;;;6.97;;
63782;SDS011;49925;52.522;5.732;2023-03-12T14:29:02;69.47;;;7.82;;
63782;SDS011;49925;52.522;5.732;2023-03-12T14:31:36;80.85;;;9.35;;
63782;SDS011;49925;52.522;5.732;2023-03-12T14:34:08;64.25;;;9.18;;
63782;SDS011;49925;52.522;5.732;2023-03-12T14:39:35;63.97;;;11.50;;
63782;SDS011;49925;52.522;5.732;2023-03-12T14:47:40;70.65;;;10.30;;
63782;SDS011;49925;52.522;5.732;2023-03-12T14:50:22;75.85;;;12.38;;
63782;SDS011;49925;52.522;5.732;2023-03-12T14:53:09;59.90;;;8.98;;
63782;SDS011;49925;52.522;5.732;2023-03-12T14:55:38;68.75;;;10.80;;
63782;SDS011;49925;52.522;5.732;2023-03-12T14:58:13;51.95;;;7.00;;
63782;SDS011;49925;52.522;5.732;2023-03-12T15:00:43;60.50;;;7.50;;
63782;SDS011;49925;52.522;5.732;2023-03-12T15:03:13;48.60;;;5.85;;
63782;SDS011;49925;52.522;5.732;2023-03-12T15:05:45;56.97;;;6.50;;
63782;SDS011;49925;52.522;5.732;2023-03-12T15:08:13;51.28;;;7.05;;
63782;SDS011;49925;52.522;5.732;2023-03-12T15:10:40;60.30;;;7.82;;
63782;SDS011;49925;52.522;5.732;2023-03-12T15:44:27;55.20;;;7.65;;
63782;SDS011;49925;52.522;5.732;2023-03-12T15:47:03;37.72;;;6.10;;
63782;SDS011;49925;52.522;5.732;2023-03-12T15:49:35;68.18;;;7.43;;
63782;SDS011;49925;52.522;5.732;2023-03-12T15:52:23;49.80;;;6.80;;
63782;SDS011;49925;52.522;5.732;2023-03-12T15:57:54;54.90;;;6.70;;
63782;SDS011;49925;52.522;5.732;2023-03-12T16:03:16;65.88;;;6.90;;
63782;SDS011;49925;52.522;5.732;2023-03-12T16:05:47;57.33;;;8.75;;
63782;SDS011;49925;52.522;5.732;2023-03-12T16:08:19;58.72;;;6.43;;
63782;SDS011;49925;52.522;5.732;2023-03-12T16:10:54;45.95;;;7.75;;
63782;SDS011;49925;52.522;5.732;2023-03-12T16:13:22;62.33;;;7.90;;
63782;SDS011;49925;52.522;5.732;2023-03-12T16:15:53;43.88;;;5.53;;
63782;SDS011;49925;52.522;5.732;2023-03-12T16:18:23;63.53;;;6.28;;
63782;SDS011;49925;52.522;5.732;2023-03-12T16:20:51;57.85;;;6.60;;
63782;SDS011;49925;52.522;5.732;2023-03-12T16:23:18;60.92;;;6.35;;
63782;SDS011;49925;52.522;5.732;2023-03-12T16:25:50;53.08;;;6.07;;
63782;SDS011;49925;52.522;5.732;2023-03-12T16:28:20;57.13;;;7.25;;
63782;SDS011;49925;52.522;5.732;2023-03-12T16:30:47;52.35;;;6.72;;
63782;SDS011;49925;52.522;5.732;2023-03-12T16:33:17;48.47;;;5.72;;
63782;SDS011;49925;52.522;5.732;2023-03-12T16:35:46;53.40;;;7.65;;
63782;SDS011;49925;52.522;5.732;2023-03-12T16:38:13;61.28;;;6.45;;
63782;SDS011;49925;52.522;5.732;2023-03-12T16:40:47;60.58;;;6.90;;
63782;SDS011;49925;52.522;5.732;2023-03-12T16:45:45;58.97;;;6.93;;
63782;SDS011;49925;52.522;5.732;2023-03-12T19:19:06;30.52;;;4.47;;
